Time;durP1;ratioP1;P1;durP2;ratioP2;P2;SDS_P1;SDS_P2;PMS_P1;PMS_P2;Temp;Humidity;BMP_temperature;BMP_pressure;BME280_temperature;BME280_humidity;BME280_pressure;Samples;Min_cycle;Max_cycle;Signal;HPM_P1;HPM_P2
2022/08/25 00:01:21;;;;;;;2.83;2.63;;;22.00;99.90;;;;;;5032205;28;20921;-69
2022/08/25 00:03:47;;;;;;;3.77;2.87;;;22.00;99.90;;;;;;5032849;28;20386;-69
2022/08/25 00:06:14;;;;;;;2.93;2.73;;;22.00;99.90;;;;;;5032975;28;20772;-68
2022/08/25 00:08:40;;;;;;;3.60;3.30;;;22.00;99.90;;;;;;5033010;28;20646;-68
2022/08/25 00:11:10;;;;;;;3.67;3.37;;;22.00;99.90;;;;;;5032764;28;20429;-68
2022/08/25 00:13:37;;;;;;;3.83;3.13;;;22.00;99.90;;;;;;5032767;28;20394;-69
2022/08/25 00:16:03;;;;;;;3.40;3.20;;;21.90;99.90;;;;;;5032198;28;20430;-69
2022/08/25 00:18:29;;;;;;;2.90;2.70;;;21.90;99.90;;;;;;5032925;28;20488;-69
2022/08/25 00:20:54;;;;;;;2.73;2.53;;;21.90;99.90;;;;;;5033124;28;20215;-69
2022/08/25 00:23:20;;;;;;;3.40;3.10;;;21.90;99.90;;;;;;5032843;28;20199;-69
2022/08/25 00:25:46;;;;;;;3.80;3.50;;;21.90;99.90;;;;;;5032934;28;20192;-70
2022/08/25 00:28:12;;;;;;;3.03;2.83;;;21.90;99.90;;;;;;5033233;28;20262;-69
2022/08/25 00:30:38;;;;;;;3.73;3.00;;;21.80;99.90;;;;;;5031669;28;20781;-69
2022/08/25 00:33:04;;;;;;;3.30;3.00;;;21.80;99.90;;;;;;5036684;28;20494;-68
2022/08/25 00:35:30;;;;;;;4.40;3.10;;;21.70;99.90;;;;;;5036647;28;20194;-69
2022/08/25 00:37:55;;;;;;;3.27;2.97;;;21.50;99.90;;;;;;5036593;28;20420;-69
2022/08/25 00:40:23;;;;;;;3.93;3.63;;;21.40;99.90;;;;;;5036685;28;20539;-69
2022/08/25 00:42:49;;;;;;;3.57;3.37;;;21.30;99.90;;;;;;5036774;28;20191;-69
2022/08/25 00:45:14;;;;;;;3.60;3.30;;;21.20;99.90;;;;;;5036116;28;20452;-69
2022/08/25 00:47:40;;;;;;;2.93;2.73;;;21.20;99.90;;;;;;5036059;28;20187;-69
2022/08/25 00:50:07;;;;;;;3.00;2.80;;;21.10;99.90;;;;;;5034919;28;20171;-69
2022/08/25 00:52:42;;;;;;;3.63;3.33;;;21.20;99.90;;;;;;5036131;28;20624;-68
2022/08/25 00:55:22;;;;;;;4.13;3.10;;;21.30;99.90;;;;;;5036080;28;20480;-69
2022/08/25 00:57:58;;;;;;;6.10;3.43;;;21.40;99.90;;;;;;5036307;28;20420;-68
2022/08/25 01:00:29;;;;;;;4.10;3.50;;;21.60;99.90;;;;;;5035620;28;20897;-69
2022/08/25 01:02:56;;;;;;;3.57;3.23;;;21.70;99.90;;;;;;5036098;28;20468;-69
2022/08/25 01:05:23;;;;;;;3.73;3.33;;;21.70;99.90;;;;;;5036109;28;20427;-69
2022/08/25 01:07:49;;;;;;;3.20;2.80;;;21.70;99.90;;;;;;5034879;28;20824;-69
2022/08/25 01:10:16;;;;;;;2.87;2.67;;;21.80;99.90;;;;;;5036017;28;20410;-69
2022/08/25 01:12:42;;;;;;;3.37;3.07;;;21.70;99.90;;;;;;5035760;28;20441;-69
2022/08/25 01:15:10;;;;;;;3.07;2.87;;;21.70;99.90;;;;;;5035933;28;20468;-69
2022/08/25 01:17:45;;;;;;;5.30;3.30;;;21.60;99.90;;;;;;5035509;28;20186;-68
2022/08/25 01:20:12;;;;;;;3.60;3.30;;;21.50;99.90;;;;;;5035595;28;20405;-68
2022/08/25 01:22:38;;;;;;;4.03;3.63;;;21.40;99.90;;;;;;5035696;28;20536;-69
2022/08/25 01:25:15;;;;;;;3.33;3.03;;;21.40;99.90;;;;;;5035603;28;20460;-69
2022/08/25 01:27:41;;;;;;;3.80;3.40;;;21.20;99.90;;;;;;5035943;28;20382;-69
2022/08/25 01:30:07;;;;;;;3.13;2.93;;;21.10;99.90;;;;;;5035500;28;20413;-69
2022/08/25 01:32:34;;;;;;;4.13;3.40;;;21.10;99.90;;;;;;5034487;28;20190;-69
2022/08/25 01:34:59;;;;;;;6.63;3.50;;;21.10;99.90;;;;;;5035403;28;20883;-69
2022/08/25 01:37:25;;;;;;;4.73;4.00;;;21.10;99.90;;;;;;5033243;28;20437;-69
2022/08/25 01:39:51;;;;;;;4.30;3.90;;;21.10;99.90;;;;;;5035634;28;20183;-69
2022/08/25 01:42:47;;;;;;;4.10;3.77;;;20.90;99.90;;;;;;5034938;28;20446;-69
2022/08/25 01:45:12;;;;;;;3.50;3.17;;;20.90;99.90;;;;;;5033526;28;20260;-69
2022/08/25 01:47:38;;;;;;;4.20;3.80;;;20.90;99.90;;;;;;5034907;28;20390;-69
2022/08/25 01:50:05;;;;;;;3.93;3.63;;;20.90;99.90;;;;;;5035604;28;20182;-69
2022/08/25 01:52:36;;;;;;;4.57;4.00;;;20.80;99.90;;;;;;5035281;28;20172;-69
2022/08/25 01:55:03;;;;;;;4.60;4.20;;;20.80;99.90;;;;;;5035085;28;20795;-69
2022/08/25 01:57:30;;;;;;;5.27;4.83;;;20.80;99.90;;;;;;5034841;28;20434;-69
2022/08/25 01:59:57;;;;;;;4.30;4.00;;;20.70;99.90;;;;;;5034827;28;20406;-69
2022/08/25 02:02:22;;;;;;;4.90;4.50;;;20.60;99.90;;;;;;5034422;28;20950;-69
2022/08/25 02:04:48;;;;;;;4.90;4.20;;;20.70;99.90;;;;;;5049970;28;20445;-69
2022/08/25 02:07:14;;;;;;;4.10;3.80;;;20.70;99.90;;;;;;5034891;28;20167;-69
2022/08/25 02:09:39;;;;;;;4.63;4.20;;;20.80;99.90;;;;;;5034954;28;20167;-69
2022/08/25 02:12:07;;;;;;;4.27;3.97;;;20.80;99.90;;;;;;5035129;28;20571;-69
2022/08/25 02:14:35;;;;;;;4.43;4.03;;;20.80;99.90;;;;;;5035289;28;20259;-69
2022/08/25 02:17:02;;;;;;;4.73;4.33;;;20.80;99.90;;;;;;5034007;28;20445;-69
2022/08/25 02:19:29;;;;;;;4.60;4.20;;;20.70;99.90;;;;;;5034752;28;20475;-69
2022/08/25 02:21:55;;;;;;;5.50;5.00;;;20.80;99.90;;;;;;5034399;28;20445;-69
2022/08/25 02:24:21;;;;;;;5.13;4.63;;;20.80;99.90;;;;;;5049745;28;20467;-69
2022/08/25 02:26:47;;;;;;;4.70;4.30;;;20.80;99.90;;;;;;5022341;28;20948;-68
2022/08/25 02:29:13;;;;;;;4.90;4.50;;;20.90;99.90;;;;;;5034630;28;20171;-68
2022/08/25 02:31:39;;;;;;;5.20;4.70;;;20.90;99.90;;;;;;5032971;28;20432;-68
2022/08/25 02:34:05;;;;;;;5.37;4.80;;;20.80;99.90;;;;;;5034201;28;20950;-69
2022/08/25 02:36:31;;;;;;;4.70;4.30;;;20.80;99.90;;;;;;5033281;28;20286;-69
2022/08/25 02:38:58;;;;;;;4.60;4.20;;;20.80;99.90;;;;;;5033838;28;20500;-69
2022/08/25 02:41:25;;;;;;;5.40;5.00;;;20.80;99.90;;;;;;5034019;28;20238;-69
2022/08/25 02:43:52;;;;;;;5.13;4.63;;;20.70;99.90;;;;;;5033465;28;20480;-69
2022/08/25 02:46:19;;;;;;;5.10;4.70;;;20.60;99.90;;;;;;5033407;28;20544;-69
2022/08/25 02:48:46;;;;;;;5.00;4.50;;;20.70;99.90;;;;;;5034045;28;20410;-69
2022/08/25 02:51:12;;;;;;;6.37;5.67;;;20.60;99.90;;;;;;5034063;28;20464;-69
2022/08/25 02:53:40;;;;;;;4.87;4.37;;;20.60;99.90;;;;;;5032662;28;20433;-69
2022/08/25 02:56:08;;;;;;;5.53;4.93;;;20.60;99.90;;;;;;5032349;28;20938;-69
2022/08/25 02:58:34;;;;;;;5.00;4.60;;;20.60;99.90;;;;;;5034066;28;20459;-69
2022/08/25 03:01:00;;;;;;;5.10;4.70;;;20.50;99.90;;;;;;5034376;28;20406;-69
2022/08/25 03:03:25;;;;;;;5.63;5.13;;;20.50;99.90;;;;;;5033744;28;20456;-68
2022/08/25 03:05:51;;;;;;;5.37;4.87;;;20.40;99.90;;;;;;5033735;28;20191;-69
2022/08/25 03:08:17;;;;;;;5.23;4.70;;;20.30;99.90;;;;;;5033628;28;20174;-69
2022/08/25 03:10:43;;;;;;;5.53;5.03;;;20.30;99.90;;;;;;5033115;28;20167;-69
2022/08/25 03:13:08;;;;;;;5.87;5.37;;;20.30;99.90;;;;;;5033498;28;20406;-69
2022/08/25 03:15:36;;;;;;;4.30;3.90;;;20.30;99.90;;;;;;5033434;28;20191;-69
2022/08/25 03:18:03;;;;;;;6.27;5.73;;;20.30;99.90;;;;;;5033634;28;20190;-69
2022/08/25 03:20:29;;;;;;;5.20;4.70;;;20.20;99.90;;;;;;5033703;28;20778;-68
2022/08/25 03:22:55;;;;;;;5.73;5.20;;;20.10;99.90;;;;;;5033301;28;20872;-69
2022/08/25 03:28:06;;;;;;;5.00;4.60;;;20.10;99.90;;;;;;5034054;28;20177;-69
2022/08/25 03:30:32;;;;;;;6.07;5.10;;;20.00;99.90;;;;;;5033546;28;20398;-69
2022/08/25 03:32:58;;;;;;;5.27;4.80;;;20.00;99.90;;;;;;5049012;28;20422;-69
2022/08/25 03:35:23;;;;;;;4.40;3.87;;;20.00;99.90;;;;;;5033839;28;20195;-68
2022/08/25 03:37:50;;;;;;;4.90;4.50;;;20.10;99.90;;;;;;5031643;28;20183;-70
2022/08/25 03:40:18;;;;;;;5.03;4.63;;;19.90;99.90;;;;;;5033330;28;20163;-68
2022/08/25 03:42:44;;;;;;;5.20;4.70;;;19.90;99.90;;;;;;5033321;28;20519;-68
2022/08/25 03:45:12;;;;;;;5.07;4.57;;;19.90;99.90;;;;;;5033373;28;20442;-69
2022/08/25 03:47:39;;;;;;;5.20;4.70;;;19.90;99.90;;;;;;5033671;28;20411;-69
2022/08/25 03:50:07;;;;;;;6.03;5.00;;;19.90;99.90;;;;;;5033752;28;20457;-69
2022/08/25 03:52:33;;;;;;;4.90;4.40;;;19.90;99.90;;;;;;5033922;28;20444;-69
2022/08/25 03:54:59;;;;;;;5.43;5.03;;;19.90;99.90;;;;;;5033125;28;20442;-69
2022/08/25 03:57:25;;;;;;;5.87;4.90;;;19.90;99.90;;;;;;5032669;28;20492;-70
2022/08/25 03:59:51;;;;;;;4.93;4.53;;;19.80;99.90;;;;;;5033615;28;20943;-68
2022/08/25 04:02:17;;;;;;;4.90;4.50;;;19.80;99.90;;;;;;5033473;28;20560;-69
2022/08/25 04:04:42;;;;;;;5.47;4.97;;;19.80;99.90;;;;;;5033579;28;20405;-68
2022/08/25 04:07:08;;;;;;;6.30;5.47;;;19.80;99.90;;;;;;5038137;28;20174;-69
2022/08/25 04:09:34;;;;;;;8.00;5.13;;;19.70;99.90;;;;;;5039484;28;20175;-68
2022/08/25 04:12:00;;;;;;;5.53;5.03;;;19.60;99.90;;;;;;5039351;28;20182;-69
2022/08/25 04:14:25;;;;;;;5.87;5.37;;;19.50;99.90;;;;;;5039159;28;20413;-68
2022/08/25 04:16:51;;;;;;;5.03;4.60;;;19.50;99.90;;;;;;5039231;28;20523;-69
2022/08/25 04:19:17;;;;;;;5.77;5.27;;;19.60;99.90;;;;;;5039364;28;20171;-69
2022/08/25 04:21:43;;;;;;;5.93;5.43;;;19.70;99.90;;;;;;5039257;28;20448;-69
2022/08/25 04:24:11;;;;;;;6.20;5.60;;;19.70;99.90;;;;;;5038942;28;20167;-69
2022/08/25 04:26:46;;;;;;;7.20;6.50;;;19.70;99.90;;;;;;5039050;28;20664;-69
2022/08/25 04:29:14;;;;;;;6.50;5.90;;;19.60;99.90;;;;;;5039070;28;20416;-69
2022/08/25 04:31:41;;;;;;;5.60;5.20;;;19.70;99.90;;;;;;5038065;28;20448;-69
2022/08/25 04:34:07;;;;;;;7.30;5.63;;;19.70;99.90;;;;;;5039272;28;20829;-68
2022/08/25 04:36:33;;;;;;;5.47;5.00;;;19.70;99.90;;;;;;5039142;28;20430;-69
2022/08/25 04:38:59;;;;;;;8.70;5.97;;;19.70;99.90;;;;;;5037728;28;20571;-69
2022/08/25 04:41:25;;;;;;;5.90;5.37;;;19.70;99.90;;;;;;5039043;28;20516;-69
2022/08/25 04:43:51;;;;;;;6.67;5.93;;;19.70;99.90;;;;;;5039251;28;20168;-69
2022/08/25 04:46:20;;;;;;;6.13;5.53;;;19.70;99.90;;;;;;5038829;28;20452;-69
2022/08/25 04:48:47;;;;;;;9.17;6.27;;;19.60;99.90;;;;;;5039070;28;20410;-69
2022/08/25 04:51:17;;;;;;;6.00;5.33;;;19.60;99.90;;;;;;5038916;28;20875;-69
2022/08/25 04:53:43;;;;;;;6.20;5.67;;;19.70;99.90;;;;;;5039012;28;20402;-69
2022/08/25 04:56:11;;;;;;;6.20;5.67;;;19.70;99.90;;;;;;5054184;28;20429;-69
2022/08/25 04:58:37;;;;;;;9.33;5.33;;;19.70;99.90;;;;;;5039203;28;20258;-69
2022/08/25 05:01:15;;;;;;;6.37;5.70;;;19.70;99.90;;;;;;5039172;28;20410;-69
2022/08/25 05:03:43;;;;;;;6.53;5.93;;;19.70;99.90;;;;;;5038909;28;20398;-69
2022/08/25 05:06:08;;;;;;;10.37;6.53;;;19.80;99.90;;;;;;5038745;28;20453;-69
2022/08/25 05:08:34;;;;;;;6.17;5.63;;;19.90;99.90;;;;;;5038216;28;20831;-69
2022/08/25 05:11:07;;;;;;;5.87;5.37;;;20.00;99.90;;;;;;5038342;28;20179;-69
2022/08/25 05:13:34;;;;;;;7.17;6.47;;;20.10;99.90;;;;;;5039104;28;20171;-69
2022/08/25 05:16:00;;;;;;;5.83;5.33;;;20.20;99.90;;;;;;5038900;28;20918;-69
2022/08/25 05:18:29;;;;;;;5.63;5.10;;;20.30;99.90;;;;;;5031799;28;20425;-69
2022/08/25 05:20:55;;;;;;;6.70;5.40;;;20.30;99.90;;;;;;5028291;28;20468;-68
2022/08/25 05:23:23;;;;;;;6.47;5.90;;;20.40;99.90;;;;;;5035217;28;20946;-69
2022/08/25 05:25:50;;;;;;;6.80;6.20;;;20.30;99.90;;;;;;5035377;28;20426;-69
2022/08/25 05:28:17;;;;;;;5.03;4.53;;;20.30;99.90;;;;;;5035497;28;20413;-67
2022/08/25 05:30:43;;;;;;;6.13;5.57;;;20.30;99.90;;;;;;5034156;28;20414;-69
2022/08/25 05:33:10;;;;;;;6.17;5.47;;;20.30;99.90;;;;;;5034813;28;20428;-68
2022/08/25 05:35:37;;;;;;;7.03;4.80;;;20.20;99.90;;;;;;5035175;28;20519;-69
2022/08/25 05:38:03;;;;;;;5.30;4.90;;;20.20;99.90;;;;;;5034237;28;20422;-68
2022/08/25 05:40:30;;;;;;;5.37;4.93;;;20.30;99.90;;;;;;5035294;28;20412;-69
2022/08/25 05:42:55;;;;;;;7.30;6.70;;;20.40;99.90;;;;;;5035096;28;20246;-69
2022/08/25 05:45:21;;;;;;;6.37;5.87;;;20.50;99.90;;;;;;5074313;23;20485;-67
2022/08/25 05:47:47;;;;;;;6.00;5.40;;;20.60;99.90;;;;;;5035816;28;20179;-68
2022/08/25 05:50:14;;;;;;;5.37;4.87;;;20.60;99.90;;;;;;5050373;28;20394;-69
2022/08/25 05:52:39;;;;;;;5.87;5.37;;;20.60;99.90;;;;;;5034205;28;20433;-69
2022/08/25 05:55:05;;;;;;;6.40;5.80;;;20.70;99.90;;;;;;5034766;28;20402;-69
2022/08/25 05:57:33;;;;;;;6.00;5.40;;;20.80;99.90;;;;;;5035489;28;20167;-69
2022/08/25 05:59:59;;;;;;;6.07;5.47;;;20.80;99.90;;;;;;5034898;28;20413;-69
2022/08/25 06:02:40;;;;;;;5.50;5.00;;;20.90;99.90;;;;;;5034732;28;20442;-69
2022/08/25 06:05:06;;;;;;;5.93;5.37;;;20.90;99.90;;;;;;5034820;28;20647;-70
2022/08/25 06:07:32;;;;;;;5.87;5.37;;;20.90;99.90;;;;;;5034621;28;20763;-70
2022/08/25 06:09:58;;;;;;;5.20;4.80;;;21.10;99.90;;;;;;5033909;28;20418;-69
2022/08/25 06:12:23;;;;;;;5.63;5.13;;;21.20;99.90;;;;;;5035212;28;20190;-69
2022/08/25 06:14:50;;;;;;;7.20;5.77;;;21.30;99.90;;;;;;5035024;28;20182;-69
2022/08/25 06:17:16;;;;;;;7.50;5.67;;;21.40;99.90;;;;;;5034622;28;20225;-68
2022/08/25 06:19:42;;;;;;;6.20;5.50;;;21.50;99.90;;;;;;5033140;28;20785;-68
2022/08/25 06:22:07;;;;;;;6.17;5.40;;;21.50;99.90;;;;;;5034504;28;20442;-67
2022/08/25 06:24:33;;;;;;;6.47;5.90;;;21.60;99.90;;;;;;5034127;28;20205;-67
2022/08/25 06:26:59;;;;;;;6.03;5.53;;;21.70;99.90;;;;;;5035088;28;20183;-67
2022/08/25 06:29:25;;;;;;;6.67;5.50;;;21.80;99.90;;;;;;5034729;28;20164;-67
2022/08/25 06:31:50;;;;;;;10.77;6.00;;;21.90;99.90;;;;;;5034889;28;20172;-68
2022/08/25 06:34:17;;;;;;;5.63;5.13;;;22.00;99.90;;;;;;5034378;28;20262;-67
2022/08/25 06:36:43;;;;;;;6.50;5.90;;;22.10;99.90;;;;;;5034491;28;20199;-68
2022/08/25 06:39:09;;;;;;;7.20;6.27;;;22.20;99.90;;;;;;5032653;28;20794;-68
2022/08/25 06:41:35;;;;;;;7.40;6.70;;;22.40;99.90;;;;;;5034832;28;20188;-68
2022/08/25 06:44:01;;;;;;;7.27;6.20;;;22.50;99.90;;;;;;5034451;28;20406;-67
2022/08/25 06:46:28;;;;;;;8.03;6.73;;;22.50;99.90;;;;;;5033697;28;20910;-67
2022/08/25 06:48:55;;;;;;;11.73;8.13;;;22.60;99.90;;;;;;5034382;28;20195;-68
2022/08/25 06:51:22;;;;;;;7.50;6.80;;;22.70;99.90;;;;;;5034054;28;20394;-68
2022/08/25 06:53:48;;;;;;;8.03;7.30;;;22.80;99.90;;;;;;5033593;28;20399;-68
2022/08/25 06:56:16;;;;;;;9.90;8.30;;;22.40;99.90;;;;;;5033267;28;20438;-68
2022/08/25 06:58:41;;;;;;;8.20;6.73;;;22.20;99.90;;;;;;5033805;28;20402;-68
2022/08/25 07:01:16;;;;;;;9.50;7.23;;;22.20;99.90;;;;;;5033915;28;20787;-68
2022/08/25 07:03:42;;;;;;;8.63;7.70;;;22.10;99.90;;;;;;5034056;28;20171;-68
2022/08/25 07:06:08;;;;;;;8.17;7.07;;;22.20;99.90;;;;;;5033739;28;20416;-68
2022/08/25 07:08:35;;;;;;;8.53;6.67;;;22.50;99.90;;;;;;5033450;28;20394;-68
2022/08/25 07:11:09;;;;;;;9.97;7.73;;;22.40;99.90;;;;;;5033398;28;20217;-68
2022/08/25 07:13:35;;;;;;;8.07;6.93;;;22.20;99.90;;;;;;5033505;28;20402;-68
2022/08/25 07:16:02;;;;;;;8.03;7.30;;;22.10;99.90;;;;;;5033626;28;20418;-68
2022/08/25 07:18:28;;;;;;;8.23;7.43;;;22.20;99.90;;;;;;5033414;28;20398;-69
2022/08/25 07:20:55;;;;;;;8.90;8.00;;;22.20;99.90;;;;;;5033976;28;20501;-69
2022/08/25 07:23:21;;;;;;;9.90;8.13;;;22.50;99.90;;;;;;5033101;28;20190;-68
2022/08/25 07:25:47;;;;;;;7.93;7.20;;;22.90;99.90;;;;;;5033136;28;20901;-69
2022/08/25 07:28:14;;;;;;;10.03;8.90;;;23.10;99.90;;;;;;5033249;28;20194;-69
2022/08/25 07:30:40;;;;;;;8.63;7.60;;;23.30;99.90;;;;;;5033314;28;20457;-69
2022/08/25 07:33:05;;;;;;;7.87;7.07;;;23.20;99.90;;;;;;5031750;28;20422;-68
2022/08/25 07:35:31;;;;;;;9.40;7.57;;;23.30;99.90;;;;;;5033213;28;20222;-69
2022/08/25 07:37:58;;;;;;;8.00;7.30;;;23.40;99.90;;;;;;5033126;28;20713;-69
2022/08/25 07:40:30;;;;;;;7.80;7.10;;;23.60;99.90;;;;;;5031545;28;20652;-68
2022/08/25 07:42:58;;;;;;;9.10;7.10;;;23.70;99.90;;;;;;5033021;28;20483;-68
2022/08/25 07:45:29;;;;;;;8.50;7.40;;;23.70;99.90;;;;;;5032991;28;20438;-68
2022/08/25 07:48:18;;;;;;;9.33;7.17;;;23.80;99.90;;;;;;5033393;28;20744;-69
2022/08/25 07:50:45;;;;;;;7.07;6.37;;;23.70;99.90;;;;;;5033089;28;20390;-69
2022/08/25 07:53:13;;;;;;;8.47;7.67;;;23.60;99.90;;;;;;5032539;28;20840;-68
2022/08/25 07:55:40;;;;;;;7.70;6.87;;;23.80;99.90;;;;;;5032553;28;20433;-69
2022/08/25 07:58:08;;;;;;;7.83;7.13;;;24.00;99.90;;;;;;5033031;28;20753;-69
2022/08/25 08:00:36;;;;;;;8.43;7.63;;;24.10;99.90;;;;;;5033046;28;20916;-69
2022/08/25 08:03:06;;;;;;;10.83;7.77;;;24.00;99.90;;;;;;5033041;28;20803;-69
2022/08/25 08:05:32;;;;;;;7.30;6.53;;;24.20;99.90;;;;;;5033036;28;20422;-69
2022/08/25 08:07:59;;;;;;;8.57;7.73;;;24.30;99.90;;;;;;5033033;28;20402;-69
2022/08/25 08:10:25;;;;;;;7.90;7.10;;;24.20;99.90;;;;;;5030871;28;20483;-69
2022/08/25 08:12:52;;;;;;;8.23;7.13;;;24.50;99.90;;;;;;5023444;28;20411;-69
2022/08/25 08:15:18;;;;;;;8.00;7.30;;;24.50;99.90;;;;;;5013357;28;20437;-68
2022/08/25 08:17:45;;;;;;;7.17;6.57;;;24.30;99.90;;;;;;5012923;28;20399;-68
2022/08/25 08:20:11;;;;;;;8.33;7.63;;;24.30;99.90;;;;;;5012713;28;20411;-68
2022/08/25 08:22:40;;;;;;;8.10;7.23;;;24.40;99.90;;;;;;5012957;28;20819;-68
2022/08/25 08:25:08;;;;;;;6.77;6.17;;;24.50;99.90;;;;;;5012392;28;20406;-69
2022/08/25 08:27:34;;;;;;;7.10;6.40;;;24.70;99.90;;;;;;5013054;28;20411;-69
2022/08/25 08:30:00;;;;;;;7.03;6.47;;;24.60;99.90;;;;;;5012840;28;20931;-68
2022/08/25 08:32:26;;;;;;;7.53;6.80;;;24.60;99.90;;;;;;5013009;28;20179;-68
2022/08/25 08:34:51;;;;;;;7.00;6.30;;;24.70;99.90;;;;;;5013105;28;20411;-68
2022/08/25 08:37:17;;;;;;;6.30;5.70;;;24.70;99.90;;;;;;5012856;28;20215;-68
2022/08/25 08:39:43;;;;;;;6.93;6.27;;;24.80;99.90;;;;;;5024424;28;20174;-69
2022/08/25 08:42:44;;;;;;;6.70;6.10;;;25.00;99.90;;;;;;5033081;28;20183;-69
2022/08/25 08:45:57;;;;;;;6.83;6.23;;;25.00;99.90;;;;;;5031665;28;20286;-68
2022/08/25 08:48:42;;;;;;;7.27;6.57;;;25.00;99.90;;;;;;5032482;28;20418;-67
2022/08/25 08:51:20;;;;;;;6.50;5.90;;;25.00;99.90;;;;;;5032623;28;20418;-68
2022/08/25 08:53:55;;;;;;;7.63;6.93;;;25.20;99.90;;;;;;5034376;28;20495;-68
2022/08/25 08:56:37;;;;;;;7.60;6.90;;;25.40;99.90;;;;;;5036277;28;20466;-67
2022/08/25 08:59:13;;;;;;;7.40;6.70;;;25.00;99.90;;;;;;5036647;28;20387;-68
2022/08/25 09:01:57;;;;;;;7.07;6.47;;;25.20;99.90;;;;;;5035987;28;20460;-68
2022/08/25 09:04:36;;;;;;;6.47;5.87;;;25.40;99.90;;;;;;5036821;28;20386;-69
2022/08/25 09:07:06;;;;;;;6.87;6.27;;;25.50;99.90;;;;;;5035879;28;20515;-69
2022/08/25 09:09:33;;;;;;;6.90;6.30;;;25.50;99.90;;;;;;5035786;28;20386;-69
2022/08/25 09:12:17;;;;;;;6.87;6.17;;;25.60;99.90;;;;;;5035964;28;20402;-69
2022/08/25 09:15:05;;;;;;;6.37;5.77;;;25.70;99.90;;;;;;5035664;28;20421;-69
2022/08/25 09:18:03;;;;;;;6.80;6.20;;;25.70;99.90;;;;;;5036151;28;20402;-69
2022/08/25 09:21:02;;;;;;;7.17;6.47;;;25.90;99.90;;;;;;5036423;28;20456;-69
2022/08/25 09:23:33;;;;;;;6.43;5.83;;;25.80;99.90;;;;;;5035849;28;20437;-68
2022/08/25 09:26:31;;;;;;;8.13;7.33;;;25.80;99.90;;;;;;5035536;28;20426;-69
2022/08/25 09:29:21;;;;;;;5.73;5.23;;;25.90;99.90;;;;;;5035471;28;20880;-68
2022/08/25 09:31:47;;;;;;;6.17;5.67;;;26.10;99.90;;;;;;5035503;28;20378;-69
2022/08/25 09:34:19;;;;;;;6.17;5.67;;;26.10;99.90;;;;;;5037781;28;20505;-73
2022/08/25 09:36:47;;;;;;;6.07;5.20;;;26.30;99.90;;;;;;5041113;28;20422;-68
2022/08/25 09:39:13;;;;;;;9.93;5.87;;;26.30;99.90;;;;;;5034368;28;20452;-70
2022/08/25 09:41:54;;;;;;;6.63;6.00;;;26.50;99.90;;;;;;5034817;28;20970;-68
2022/08/25 09:44:47;;;;;;;8.67;5.90;;;26.70;99.90;;;;;;5035315;28;20410;-69
2022/08/25 09:47:12;;;;;;;6.30;5.80;;;26.80;99.90;;;;;;5033375;28;20496;-70
2022/08/25 09:50:01;;;;;;;6.30;5.70;;;26.60;99.90;;;;;;5034968;28;20414;-68
2022/08/25 09:52:27;;;;;;;6.90;6.30;;;26.60;99.90;;;;;;5035357;28;20525;-69
2022/08/25 09:54:55;;;;;;;6.80;6.20;;;26.60;99.90;;;;;;5035173;28;20410;-69
2022/08/25 09:57:33;;;;;;;8.27;6.00;;;26.80;99.90;;;;;;5035760;28;20253;-68
2022/08/25 10:00:22;;;;;;;6.70;6.10;;;26.60;99.90;;;;;;5035051;28;20386;-68
2022/08/25 10:03:03;;;;;;;7.20;6.20;;;26.90;99.90;;;;;;5034997;28;20444;-69
2022/08/25 10:05:33;;;;;;;6.60;6.00;;;27.20;99.90;;;;;;5034488;28;20426;-68
2022/08/25 10:08:09;;;;;;;6.50;5.90;;;27.30;99.90;;;;;;5035109;28;20383;-68
2022/08/25 10:10:51;;;;;;;6.50;6.00;;;27.30;99.90;;;;;;5034639;28;20398;-68
2022/08/25 10:13:19;;;;;;;6.00;5.40;;;27.30;99.90;;;;;;5034376;28;20390;-68
2022/08/25 10:15:45;;;;;;;5.83;5.33;;;27.60;99.90;;;;;;5034570;28;20838;-69
2022/08/25 10:18:17;;;;;;;5.80;5.30;;;27.40;99.80;;;;;;5034647;28;20456;-68
2022/08/25 10:20:43;;;;;;;5.73;5.23;;;27.30;99.60;;;;;;5034532;28;20398;-68
2022/08/25 10:23:12;;;;;;;5.97;5.43;;;27.30;99.60;;;;;;5034767;28;20576;-68
2022/08/25 10:25:45;;;;;;;5.60;5.10;;;27.60;99.30;;;;;;5034307;28;20218;-68
2022/08/25 10:28:39;;;;;;;6.23;5.63;;;28.00;98.90;;;;;;5033092;28;20444;-68
2022/08/25 10:31:12;;;;;;;6.03;5.50;;;28.30;98.30;;;;;;5034400;28;20395;-69
2022/08/25 10:33:53;;;;;;;6.67;5.97;;;28.10;97.70;;;;;;5034581;28;20814;-69
2022/08/25 10:36:47;;;;;;;5.40;4.90;;;27.80;97.80;;;;;;5034574;28;20476;-68
2022/08/25 10:39:56;;;;;;;5.70;5.00;;;28.00;97.90;;;;;;5033446;28;20418;-69
2022/08/25 10:42:37;;;;;;;6.10;5.50;;;28.40;97.00;;;;;;5034365;28;20524;-68
2022/08/25 10:48:39;;;;;;;5.77;5.23;;;28.50;96.80;;;;;;5034712;28;20393;-67
2022/08/25 10:51:28;;;;;;;5.33;4.90;;;28.50;96.40;;;;;;5034384;28;20477;-68
2022/08/25 10:54:04;;;;;;;5.70;5.27;;;28.50;96.30;;;;;;5034403;28;20375;-67
2022/08/25 10:56:36;;;;;;;5.13;4.40;;;28.80;96.00;;;;;;5033845;28;20501;-68
2022/08/25 10:59:21;;;;;;;5.50;5.00;;;30.10;94.30;;;;;;5032527;28;20468;-68
2022/08/25 11:02:20;;;;;;;5.20;4.80;;;31.80;91.70;;;;;;5032647;28;20445;-68
2022/08/25 11:05:06;;;;;;;7.13;5.27;;;32.10;88.90;;;;;;5024366;28;20418;-67
2022/08/25 11:07:40;;;;;;;5.23;4.77;;;31.10;90.40;;;;;;5013963;28;20495;-67
2022/08/25 11:10:11;;;;;;;4.93;4.50;;;32.20;87.30;;;;;;5014421;28;20954;-67
2022/08/25 11:12:42;;;;;;;6.00;4.53;;;33.90;82.20;;;;;;5012581;28;20426;-68
2022/08/25 11:15:24;;;;;;;5.80;4.07;;;34.80;76.40;;;;;;5013461;28;20403;-68
2022/08/25 11:18:08;;;;;;;4.20;3.83;;;34.60;72.90;;;;;;5013983;28;20410;-69
2022/08/25 11:20:55;;;;;;;4.10;3.80;;;34.10;73.10;;;;;;5014018;28;20387;-68
2022/08/25 11:23:45;;;;;;;5.00;4.17;;;34.00;73.00;;;;;;5014389;28;20488;-69
2022/08/25 11:26:13;;;;;;;4.27;3.97;;;35.00;69.30;;;;;;5013383;28;20419;-68
2022/08/25 11:28:56;;;;;;;4.50;4.10;;;35.20;68.30;;;;;;5021720;28;20406;-68
2022/08/25 11:31:23;;;;;;;4.17;3.87;;;36.50;65.60;;;;;;5033443;28;20387;-69
2022/08/25 11:33:50;;;;;;;4.40;4.00;;;35.80;64.10;;;;;;5033759;28;20410;-68
2022/08/25 11:36:34;;;;;;;5.13;4.63;;;35.90;64.70;;;;;;5033366;28;20836;-69
2022/08/25 11:39:12;;;;;;;4.13;3.80;;;35.60;63.60;;;;;;5033334;28;20390;-69
2022/08/25 11:42:16;;;;;;;4.03;3.67;;;35.70;62.70;;;;;;5031904;28;20532;-69
2022/08/25 11:44:50;;;;;;;3.63;3.30;;;36.20;61.10;;;;;;5032798;28;20946;-69
2022/08/25 11:47:33;;;;;;;3.90;3.60;;;36.80;59.10;;;;;;5042011;22;20585;-70
2022/08/25 11:50:25;;;;;;;3.53;3.33;;;35.00;60.30;;;;;;5013273;28;20781;-70
2022/08/25 11:52:55;;;;;;;3.57;3.27;;;34.70;61.20;;;;;;5013543;28;20417;-70
2022/08/25 11:55:35;;;;;;;3.63;3.00;;;35.00;59.40;;;;;;5013449;28;20455;-69
2022/08/25 11:58:25;;;;;;;4.03;3.20;;;34.90;60.40;;;;;;5032381;28;20394;-69
2022/08/25 12:00:51;;;;;;;3.77;3.47;;;35.90;58.90;;;;;;5032978;28;20417;-70
2022/08/25 12:03:35;;;;;;;3.70;3.40;;;35.70;58.40;;;;;;5032589;28;20532;-70
2022/08/25 12:06:30;;;;;;;3.60;3.30;;;34.50;61.30;;;;;;5032795;28;20571;-68
2022/08/25 12:08:59;;;;;;;3.57;3.27;;;34.70;60.10;;;;;;5032864;28;20379;-70
2022/08/25 12:11:37;;;;;;;3.67;3.40;;;35.80;59.20;;;;;;5032743;28;20417;-70
2022/08/25 12:14:17;;;;;;;4.00;3.60;;;36.80;58.00;;;;;;5032736;28;20410;-69
2022/08/25 12:16:59;;;;;;;3.40;3.20;;;37.90;54.90;;;;;;5032602;28;20789;-69
2022/08/25 12:19:47;;;;;;;3.70;3.40;;;37.00;55.50;;;;;;5032809;28;20409;-69
2022/08/25 12:22:12;;;;;;;3.90;3.60;;;36.30;57.40;;;;;;5032684;28;20847;-68
2022/08/25 12:24:41;;;;;;;3.40;2.97;;;37.30;55.50;;;;;;5032722;28;20406;-69
2022/08/25 12:27:35;;;;;;;3.77;3.47;;;38.60;54.20;;;;;;5033491;28;20198;-69
2022/08/25 12:30:12;;;;;;;3.40;3.10;;;38.10;53.00;;;;;;5037023;28;20382;-68
2022/08/25 12:32:46;;;;;;;3.40;3.20;;;37.60;53.30;;;;;;5036645;28;20406;-69
2022/08/25 12:35:28;;;;;;;4.97;3.63;;;37.80;53.40;;;;;;5036917;28;20902;-69
2022/08/25 12:38:15;;;;;;;4.17;3.77;;;36.20;56.20;;;;;;5036686;28;20414;-69
2022/08/25 12:40:46;;;;;;;3.73;3.40;;;35.80;58.00;;;;;;5036475;28;20413;-69
2022/08/25 12:43:28;;;;;;;3.37;2.97;;;36.40;57.40;;;;;;5034427;28;20457;-70
2022/08/25 12:46:24;;;;;;;3.83;3.47;;;37.00;56.10;;;;;;5036009;28;20757;-70
2022/08/25 12:48:59;;;;;;;3.33;3.10;;;37.80;54.60;;;;;;5036058;28;20497;-69
2022/08/25 12:51:46;;;;;;;2.83;2.57;;;37.90;53.40;;;;;;5036138;28;20394;-69
2022/08/25 12:54:29;;;;;;;2.80;2.60;;;39.30;49.90;;;;;;5028953;28;20417;-70
2022/08/25 12:57:19;;;;;;;3.60;3.30;;;39.10;48.90;;;;;;5036226;28;20787;-70
2022/08/25 12:59:51;;;;;;;3.30;3.03;;;37.70;51.20;;;;;;5036167;28;20379;-70
2022/08/25 13:02:32;;;;;;;3.10;2.83;;;35.80;55.00;;;;;;5035921;28;20461;-70
2022/08/25 13:05:04;;;;;;;3.30;3.10;;;36.50;53.50;;;;;;5035894;28;20374;-69
2022/08/25 13:07:54;;;;;;;3.30;3.00;;;35.60;54.90;;;;;;5035860;28;20926;-68
2022/08/25 13:10:23;;;;;;;3.20;2.90;;;35.60;55.00;;;;;;5035748;28;20391;-69
2022/08/25 13:13:13;;;;;;;2.97;2.77;;;36.70;53.50;;;;;;5035485;28;20414;-68